METAR Data
IDs: Format: Raw Decoded Include TAF

Data at: 0926 UTC 23 Jan 2019

METAR for:KPAE (Everett/Paine Fld, WA, US)
Text:KPAE 230853Z AUTO 15021G31KT 10SM OVC006 09/08 A2989 RMK AO2 PK WND 15031/0848 SLP125 T00940083 56027
Temperature: 9.4°C ( 49°F)
Dewpoint: 8.3°C ( 47°F) [RH = 93%]
Pressure (altimeter):29.89 inches Hg (1012.3 mb) [Sea level pressure: 1012.5 mb]
Winds:from the SSE (150 degrees) at 24 MPH (21 knots; 10.8 m/s) gusting to 36 MPH (31 knots; 15.9 m/s)
Visibility:10 or more sm (16+ km)
Ceiling:600 feet AGL
Clouds: overcast cloud deck at 600 feet AGL
QC Flag:automated observation with no human augmentation
Text:KPAE 230753Z AUTO 14017G27KT 7SM OVC007 09/08 A2992 RMK AO2 PK WND 12033/0658 SLP133 T00890078 400890039
Temperature: 8.9°C ( 48°F)
Dewpoint: 7.8°C ( 46°F) [RH = 93%]
Pressure (altimeter):29.92 inches Hg (1013.3 mb) [Sea level pressure: 1013.3 mb]
Winds:from the SE (140 degrees) at 20 MPH (17 knots; 8.7 m/s) gusting to 31 MPH (27 knots; 13.9 m/s)
Visibility: 7 sm ( 11 km)
Ceiling:700 feet AGL
Clouds: overcast cloud deck at 700 feet AGL
QC Flag:automated observation with no human augmentation
Text:KPAE 230653Z AUTO 13022G31KT 10SM BKN007 OVC016 08/07 A2993 RMK AO2 PK WND 14033/0604 CIG 006V012 SLP139 T00830072
Temperature: 8.3°C ( 47°F)
Dewpoint: 7.2°C ( 45°F) [RH = 93%]
Pressure (altimeter):29.93 inches Hg (1013.6 mb) [Sea level pressure: 1013.9 mb]
Winds:from the SE (130 degrees) at 25 MPH (22 knots; 11.3 m/s) gusting to 36 MPH (31 knots; 15.9 m/s)
Visibility:10 or more sm (16+ km)
Ceiling:700 feet AGL
Clouds: broken clouds at 700 feet AGL, overcast cloud deck at 1600 feet AGL
QC Flag:automated observation with no human augmentation

TAF for:KPAE (Everett/Paine Fld, WA, US) issued at 0528 UTC 23 Jan 2019
Text:KPAE 230528Z 2306/2406 18012G25KT 5SM -SHRA BKN007 OVC012
Forecast period:0600 to 1200 UTC 23 January 2019
Forecast type:FROM: standard forecast or significant change
Winds:from the S (180 degrees) at 14 MPH (12 knots; 6.2 m/s) gusting to 29 MPH (25 knots; 12.9 m/s)
Visibility: 5 sm ( 8 km)
Ceiling:700 feet AGL
Clouds: broken clouds at 700 feet AGL, overcast cloud deck at 1200 feet AGL
Weather:-SHRA (light rain showers)
Text:FM231200 19010KT P6SM OVC007
Forecast period:1200 to 1900 UTC 23 January 2019
Forecast type:FROM: standard forecast or significant change
Winds:from the S (190 degrees) at 12 MPH (10 knots; 5.1 m/s)
Visibility:6 or more sm (10+ km)
Ceiling:700 feet AGL
Clouds: overcast cloud deck at 700 feet AGL
Text:FM231900 20004KT P6SM OVC007
Forecast period:1900 to 2300 UTC 23 January 2019
Forecast type:FROM: standard forecast or significant change
Winds:from the SSW (200 degrees) at 5 MPH (4 knots; 2.1 m/s)
Visibility:6 or more sm (10+ km)
Ceiling:700 feet AGL
Clouds: overcast cloud deck at 700 feet AGL
Text:FM232300 31005KT 6SM BR OVC007
Forecast period:2300 UTC 23 January 2019 to 0600 UTC 24 January 2019
Forecast type:FROM: standard forecast or significant change
Winds:from the NW (310 degrees) at 6 MPH (5 knots; 2.6 m/s)
Visibility: 6 sm ( 10 km)
Ceiling:700 feet AGL
Clouds: overcast cloud deck at 700 feet AGL
Weather:BR (mist)